Time;durP1;ratioP1;P1;durP2;ratioP2;P2;SDS_P1;SDS_P2;PMS_P1;PMS_P2;Temp;Humidity;BMP_temperature;BMP_pressure;BME280_temperature;BME280_humidity;BME280_pressure;Samples;Min_cycle;Max_cycle;Signal;HPM_P1;HPM_P2
2023/05/31 00:01:16;;;;;;;3.23;2.93;;;27.30;51.40;;;;;;5072522;28;20487;-68
2023/05/31 00:03:44;;;;;;;3.00;2.73;;;27.20;51.40;;;;;;5055595;28;20465;-69
2023/05/31 00:06:13;;;;;;;3.60;3.30;;;27.20;51.30;;;;;;5072317;28;20953;-66
2023/05/31 00:08:41;;;;;;;3.13;2.83;;;27.20;51.20;;;;;;5073064;28;20511;-66
2023/05/31 00:11:11;;;;;;;2.90;2.70;;;27.20;51.30;;;;;;5072262;28;21035;-69
2023/05/31 00:13:39;;;;;;;3.20;2.60;;;27.20;51.20;;;;;;5072796;28;20465;-68
2023/05/31 00:16:08;;;;;;;2.77;2.57;;;27.20;51.40;;;;;;5053917;28;20466;-69
2023/05/31 00:18:57;;;;;;;5.07;3.10;;;27.20;51.30;;;;;;5076581;28;20454;-68
2023/05/31 00:21:25;;;;;;;2.60;2.40;;;27.10;51.40;;;;;;5079927;28;20484;-68
2023/05/31 00:23:54;;;;;;;3.43;3.13;;;27.10;51.30;;;;;;5055545;28;20457;-70
2023/05/31 00:26:23;;;;;;;3.43;2.67;;;27.10;51.70;;;;;;5070986;28;20862;-68
2023/05/31 00:28:51;;;;;;;2.90;2.70;;;27.10;51.30;;;;;;5071834;28;21366;-69
2023/05/31 00:31:20;;;;;;;2.80;2.60;;;27.10;51.10;;;;;;5073063;28;20492;-69
2023/05/31 00:33:48;;;;;;;3.03;2.77;;;27.10;51.60;;;;;;5072270;28;20463;-69
2023/05/31 00:36:16;;;;;;;4.23;2.57;;;27.10;51.60;;;;;;5071883;28;20508;-68
2023/05/31 00:38:44;;;;;;;3.10;2.90;;;27.10;51.10;;;;;;5072768;28;21204;-68
2023/05/31 00:41:13;;;;;;;2.97;2.77;;;27.10;51.10;;;;;;5054286;28;20492;-69
2023/05/31 00:43:42;;;;;;;3.33;3.03;;;27.00;51.10;;;;;;5072225;28;20511;-69
2023/05/31 00:46:20;;;;;;;2.90;2.70;;;27.00;50.90;;;;;;5071097;28;20556;-69
2023/05/31 00:48:48;;;;;;;3.00;2.80;;;27.00;51.40;;;;;;5071841;28;20451;-69
2023/05/31 00:51:16;;;;;;;2.47;2.27;;;27.00;51.40;;;;;;5070226;28;21241;-69
2023/05/31 00:53:45;;;;;;;2.80;2.33;;;27.00;51.20;;;;;;5069356;28;20485;-69
2023/05/31 00:56:14;;;;;;;2.40;2.20;;;27.00;51.30;;;;;;5075735;28;20814;-69
2023/05/31 00:58:45;;;;;;;2.53;2.33;;;27.00;51.10;;;;;;5083923;28;20449;-69
2023/05/31 01:01:14;;;;;;;2.30;2.20;;;27.00;51.00;;;;;;5091968;28;20944;-68
2023/05/31 01:03:44;;;;;;;2.50;2.40;;;26.90;50.70;;;;;;5065731;28;20455;-69
2023/05/31 01:06:12;;;;;;;3.00;2.80;;;26.90;51.10;;;;;;5072126;28;20504;-68
2023/05/31 01:08:42;;;;;;;2.67;2.50;;;26.90;50.90;;;;;;5071933;28;20450;-68
2023/05/31 01:11:18;;;;;;;2.67;2.47;;;26.90;50.80;;;;;;5054024;28;20449;-69
2023/05/31 01:13:58;;;;;;;3.00;2.80;;;26.90;51.00;;;;;;5053195;28;20988;-68
2023/05/31 01:16:32;;;;;;;2.53;2.33;;;26.90;50.90;;;;;;5070414;28;20539;-68
2023/05/31 01:19:07;;;;;;;2.73;2.53;;;26.90;51.20;;;;;;5052927;28;20449;-68
2023/05/31 01:21:51;;;;;;;3.23;2.20;;;26.90;50.90;;;;;;5053241;28;20883;-68
2023/05/31 01:24:27;;;;;;;2.77;2.17;;;26.90;50.70;;;;;;5053161;28;20445;-67
2023/05/31 01:27:01;;;;;;;3.23;2.20;;;26.90;50.40;;;;;;5070602;28;20497;-68
2023/05/31 01:29:33;;;;;;;2.30;2.20;;;26.80;50.50;;;;;;5053391;28;20890;-68
2023/05/31 01:32:02;;;;;;;2.77;2.57;;;26.80;50.50;;;;;;5071362;28;20493;-68
2023/05/31 01:34:31;;;;;;;4.13;2.50;;;26.80;51.00;;;;;;5054191;28;20505;-68
2023/05/31 01:37:00;;;;;;;2.40;2.20;;;26.80;51.20;;;;;;5051943;28;20828;-69
2023/05/31 01:39:28;;;;;;;4.37;2.37;;;26.80;50.60;;;;;;5064593;28;20463;-68
2023/05/31 01:42:01;;;;;;;2.63;2.43;;;26.80;50.80;;;;;;5067051;28;20464;-68
2023/05/31 01:44:33;;;;;;;2.50;2.30;;;26.80;50.70;;;;;;5069032;28;20492;-68
2023/05/31 01:47:02;;;;;;;2.20;1.97;;;26.80;51.10;;;;;;5071122;28;20441;-68
2023/05/31 01:49:32;;;;;;;2.23;2.00;;;26.70;50.80;;;;;;5053341;28;20485;-69
2023/05/31 01:52:01;;;;;;;2.70;2.50;;;26.70;50.70;;;;;;5070910;28;20446;-68
2023/05/31 01:54:29;;;;;;;1.70;1.60;;;26.80;50.90;;;;;;5050478;28;20466;-68
2023/05/31 01:56:59;;;;;;;3.03;2.80;;;26.70;50.60;;;;;;5051018;28;21291;-68
2023/05/31 01:59:30;;;;;;;2.27;2.07;;;26.70;50.70;;;;;;5052731;28;20473;-68
2023/05/31 02:01:59;;;;;;;2.57;2.37;;;26.70;50.60;;;;;;5052987;28;20556;-68
2023/05/31 02:04:28;;;;;;;2.30;2.10;;;26.70;50.20;;;;;;5052970;28;20470;-69
2023/05/31 02:06:57;;;;;;;2.90;2.27;;;26.70;51.10;;;;;;5071055;28;20460;-68
2023/05/31 02:09:26;;;;;;;3.80;2.53;;;26.70;50.80;;;;;;5070861;28;20468;-68
2023/05/31 02:11:54;;;;;;;2.90;2.27;;;26.60;51.10;;;;;;5071291;28;20487;-68
2023/05/31 02:14:22;;;;;;;2.30;2.00;;;26.60;51.30;;;;;;5068915;28;20476;-68
2023/05/31 02:16:52;;;;;;;2.27;2.07;;;26.60;50.80;;;;;;5067430;28;20457;-68
2023/05/31 02:19:25;;;;;;;2.80;2.50;;;26.60;51.40;;;;;;5051773;28;20980;-69
2023/05/31 02:21:54;;;;;;;2.63;1.90;;;26.60;51.30;;;;;;5052337;28;20461;-68
2023/05/31 02:24:22;;;;;;;2.40;2.17;;;26.60;51.20;;;;;;5069589;28;20514;-68
2023/05/31 02:26:50;;;;;;;2.70;2.10;;;26.60;50.90;;;;;;5070968;28;20550;-69
2023/05/31 02:29:19;;;;;;;2.70;2.50;;;26.60;51.00;;;;;;5069828;28;20495;-68
2023/05/31 02:31:47;;;;;;;2.60;2.20;;;26.60;50.80;;;;;;5051430;28;20863;-68
2023/05/31 02:34:18;;;;;;;2.97;2.77;;;26.60;51.30;;;;;;5069638;28;20480;-68
2023/05/31 02:36:46;;;;;;;3.57;2.67;;;26.60;51.00;;;;;;5052968;28;20548;-68
2023/05/31 02:39:14;;;;;;;3.47;2.20;;;26.60;50.60;;;;;;5063085;28;20479;-68
2023/05/31 02:41:43;;;;;;;2.93;2.20;;;26.60;51.00;;;;;;5066079;28;20453;-69
2023/05/31 02:44:11;;;;;;;2.40;2.20;;;26.50;51.00;;;;;;5053325;28;20475;-69
2023/05/31 02:46:40;;;;;;;2.30;2.10;;;26.50;50.80;;;;;;5073101;28;20842;-69
2023/05/31 02:49:08;;;;;;;2.60;2.20;;;26.50;50.80;;;;;;5052937;28;20469;-69
2023/05/31 02:51:38;;;;;;;2.43;1.97;;;26.50;50.50;;;;;;5072988;28;20817;-68
2023/05/31 02:54:25;;;;;;;2.07;1.87;;;26.50;50.70;;;;;;5067052;28;21124;-68
2023/05/31 02:56:53;;;;;;;2.43;2.23;;;26.50;51.20;;;;;;5055375;28;20472;-68
2023/05/31 02:59:22;;;;;;;2.60;2.40;;;26.50;50.70;;;;;;5071985;28;20801;-68
2023/05/31 03:02:03;;;;;;;2.27;1.70;;;26.40;50.40;;;;;;5054711;28;20460;-68
2023/05/31 03:04:37;;;;;;;1.80;1.70;;;26.40;51.00;;;;;;5074817;28;20434;-68
2023/05/31 03:07:07;;;;;;;2.20;2.10;;;26.40;51.30;;;;;;5056174;28;20503;-68
2023/05/31 03:09:36;;;;;;;2.07;1.97;;;26.40;51.30;;;;;;5055666;28;20987;-68
2023/05/31 03:12:07;;;;;;;2.70;2.50;;;26.40;50.50;;;;;;5055645;28;20463;-68
2023/05/31 03:14:36;;;;;;;2.10;1.90;;;26.40;51.00;;;;;;5072020;28;20476;-68
2023/05/31 03:17:06;;;;;;;1.80;1.70;;;26.40;50.90;;;;;;5071963;28;20473;-68
2023/05/31 03:19:34;;;;;;;2.63;2.10;;;26.40;51.40;;;;;;5055995;28;20956;-68
2023/05/31 03:22:04;;;;;;;2.53;1.90;;;26.40;50.90;;;;;;5055543;28;20475;-68
2023/05/31 03:24:35;;;;;;;2.20;1.83;;;26.40;50.60;;;;;;5055405;28;20659;-68
2023/05/31 03:27:05;;;;;;;2.13;1.93;;;26.40;50.40;;;;;;5056061;28;20490;-68
2023/05/31 03:29:35;;;;;;;1.77;1.67;;;26.40;50.80;;;;;;5055182;28;20461;-68
2023/05/31 03:32:03;;;;;;;2.30;2.10;;;26.30;51.30;;;;;;5072928;28;20506;-68
2023/05/31 03:34:32;;;;;;;3.10;2.20;;;26.30;51.10;;;;;;5056325;28;20461;-68
2023/05/31 03:37:02;;;;;;;2.17;1.97;;;26.30;51.40;;;;;;5055877;28;20510;-68
2023/05/31 03:39:44;;;;;;;2.27;2.07;;;26.30;50.70;;;;;;5055759;28;20468;-68
2023/05/31 03:42:23;;;;;;;2.30;2.10;;;26.30;50.50;;;;;;5054273;28;20459;-68
2023/05/31 03:44:52;;;;;;;2.03;1.83;;;26.30;50.60;;;;;;5054326;28;20548;-68
2023/05/31 03:47:21;;;;;;;2.13;2.03;;;26.30;50.60;;;;;;5054771;28;20510;-68
2023/05/31 03:49:49;;;;;;;4.60;2.60;;;26.30;50.90;;;;;;5055096;28;20540;-68
2023/05/31 03:52:17;;;;;;;2.63;1.90;;;26.30;50.70;;;;;;5047697;28;20467;-68
2023/05/31 03:54:47;;;;;;;1.80;1.70;;;26.30;50.50;;;;;;5068611;28;20474;-68
2023/05/31 03:57:16;;;;;;;3.23;1.90;;;26.30;50.50;;;;;;5068074;28;20488;-67
2023/05/31 03:59:44;;;;;;;1.83;1.73;;;26.20;50.60;;;;;;5054423;28;20457;-68
2023/05/31 04:02:12;;;;;;;2.20;2.10;;;26.20;51.00;;;;;;5046310;28;20957;-68
2023/05/31 04:04:41;;;;;;;1.93;1.83;;;26.20;50.80;;;;;;5071617;28;20453;-68
2023/05/31 04:07:09;;;;;;;2.63;2.43;;;26.20;51.20;;;;;;5055175;28;20452;-68
2023/05/31 04:09:38;;;;;;;3.53;2.33;;;26.20;50.70;;;;;;5071170;28;20456;-68
2023/05/31 04:12:09;;;;;;;2.50;2.30;;;26.20;50.70;;;;;;5058221;28;20465;-68
2023/05/31 04:14:37;;;;;;;2.10;1.90;;;26.20;50.60;;;;;;5092192;28;20882;-68
2023/05/31 04:17:08;;;;;;;2.23;2.03;;;26.20;51.00;;;;;;5054887;28;20464;-68
2023/05/31 04:19:38;;;;;;;4.40;2.30;;;26.20;50.40;;;;;;5071352;28;20458;-68
2023/05/31 04:22:07;;;;;;;2.40;2.20;;;26.20;51.10;;;;;;5046137;28;20476;-68
2023/05/31 04:24:35;;;;;;;2.07;1.97;;;26.20;50.80;;;;;;5053836;28;20454;-68
2023/05/31 04:27:05;;;;;;;3.00;2.50;;;26.20;51.10;;;;;;5050868;28;20719;-68
2023/05/31 04:29:37;;;;;;;2.20;1.93;;;26.20;50.80;;;;;;5054480;28;20951;-69
2023/05/31 04:32:07;;;;;;;2.53;2.20;;;26.20;50.50;;;;;;5049988;28;20486;-68
2023/05/31 04:34:36;;;;;;;2.87;2.40;;;26.20;50.70;;;;;;5054319;28;20485;-68
2023/05/31 04:37:06;;;;;;;2.60;2.40;;;26.20;50.50;;;;;;5054493;28;20460;-67
2023/05/31 04:39:36;;;;;;;2.13;1.97;;;26.20;50.70;;;;;;5054435;28;20463;-68
2023/05/31 04:42:05;;;;;;;2.20;2.00;;;26.20;51.10;;;;;;5060386;28;20480;-68
2023/05/31 04:44:34;;;;;;;2.30;2.10;;;26.20;50.60;;;;;;5051982;28;20517;-68
2023/05/31 04:47:05;;;;;;;2.17;1.97;;;26.20;50.60;;;;;;5054167;28;20618;-68
2023/05/31 04:49:33;;;;;;;2.50;2.20;;;26.20;50.70;;;;;;5072430;28;20925;-69
2023/05/31 04:52:22;;;;;;;2.10;1.90;;;26.20;50.40;;;;;;5045713;28;20818;-68
2023/05/31 04:54:51;;;;;;;1.97;1.87;;;26.20;50.70;;;;;;5070819;28;20893;-68
2023/05/31 04:57:19;;;;;;;2.23;2.00;;;26.10;50.90;;;;;;5059253;28;20464;-68
2023/05/31 04:59:47;;;;;;;3.30;2.07;;;26.20;50.70;;;;;;5036773;28;20465;-68
2023/05/31 05:02:18;;;;;;;2.20;2.00;;;26.10;51.10;;;;;;5034693;28;20905;-68
2023/05/31 05:04:47;;;;;;;2.03;1.80;;;26.20;51.20;;;;;;5051805;28;20480;-68
2023/05/31 05:07:17;;;;;;;2.33;2.13;;;26.20;50.90;;;;;;5050778;28;20460;-68
2023/05/31 05:09:46;;;;;;;1.80;1.70;;;26.20;50.70;;;;;;5054256;28;20536;-68
2023/05/31 05:12:14;;;;;;;2.13;1.93;;;26.20;50.80;;;;;;5061357;28;20550;-68
2023/05/31 05:14:45;;;;;;;2.90;2.37;;;26.20;50.60;;;;;;5056673;28;20458;-68
2023/05/31 05:17:14;;;;;;;3.40;1.53;;;26.20;50.90;;;;;;5065944;28;20461;-68
2023/05/31 05:19:44;;;;;;;1.93;1.80;;;26.20;50.80;;;;;;5052501;28;20871;-68
2023/05/31 05:22:13;;;;;;;1.90;1.80;;;26.20;50.80;;;;;;5052646;28;20479;-68
2023/05/31 05:24:41;;;;;;;1.83;1.73;;;26.20;50.80;;;;;;5033495;28;20468;-68
2023/05/31 05:27:11;;;;;;;1.87;1.73;;;26.20;50.70;;;;;;5044601;28;20985;-67
2023/05/31 05:29:39;;;;;;;1.97;1.83;;;26.20;50.80;;;;;;5059430;28;20460;-69
2023/05/31 05:32:08;;;;;;;2.17;2.07;;;26.20;50.60;;;;;;5054935;28;20461;-68
2023/05/31 05:34:37;;;;;;;2.47;2.20;;;26.20;50.70;;;;;;5052502;28;20492;-68
2023/05/31 05:37:08;;;;;;;2.10;1.90;;;26.20;50.80;;;;;;5051961;28;20560;-67
2023/05/31 05:39:36;;;;;;;2.37;1.80;;;26.20;50.80;;;;;;5070257;28;20438;-68
2023/05/31 05:42:05;;;;;;;2.30;2.10;;;26.20;50.80;;;;;;5055531;28;20461;-68
2023/05/31 05:44:34;;;;;;;1.97;1.87;;;26.20;50.60;;;;;;5054862;28;20451;-68
2023/05/31 05:47:04;;;;;;;1.73;1.63;;;26.20;50.60;;;;;;5053482;28;20449;-68
2023/05/31 05:49:33;;;;;;;2.80;2.13;;;26.20;50.70;;;;;;5090836;28;20427;-68
2023/05/31 05:52:01;;;;;;;2.17;1.90;;;26.20;50.80;;;;;;5057805;28;20498;-68
2023/05/31 05:54:32;;;;;;;2.00;1.90;;;26.30;50.60;;;;;;5067989;28;20560;-68
2023/05/31 05:57:01;;;;;;;2.77;2.17;;;26.30;50.70;;;;;;5045110;28;20506;-69
2023/05/31 05:59:32;;;;;;;2.40;2.20;;;26.20;50.70;;;;;;5062072;28;20468;-68
2023/05/31 06:02:04;;;;;;;2.07;1.87;;;26.30;50.70;;;;;;5076611;28;20459;-68
2023/05/31 06:04:33;;;;;;;2.00;1.80;;;26.30;50.80;;;;;;5065165;28;20450;-67
2023/05/31 06:07:04;;;;;;;2.70;2.10;;;26.30;51.00;;;;;;5050736;28;20464;-68
2023/05/31 06:09:34;;;;;;;2.10;1.90;;;26.30;50.90;;;;;;5051699;28;20822;-68
2023/05/31 06:12:02;;;;;;;2.17;1.83;;;26.30;51.00;;;;;;5052126;28;20465;-68
2023/05/31 06:14:34;;;;;;;2.17;2.00;;;26.30;50.80;;;;;;5050216;28;20473;-68
2023/05/31 06:17:03;;;;;;;4.83;2.30;;;26.30;50.80;;;;;;5070673;28;20533;-68
2023/05/31 06:19:31;;;;;;;1.87;1.77;;;26.30;50.90;;;;;;5072421;28;20458;-68
2023/05/31 06:22:00;;;;;;;2.10;2.00;;;26.30;50.90;;;;;;5054645;28;20468;-68
2023/05/31 06:24:28;;;;;;;2.80;2.60;;;26.30;50.90;;;;;;5053146;28;20494;-70
2023/05/31 06:26:58;;;;;;;2.53;2.03;;;26.30;51.00;;;;;;5072485;28;20534;-69
2023/05/31 06:29:31;;;;;;;2.00;1.87;;;26.30;51.00;;;;;;5057249;28;20538;-68
2023/05/31 06:32:28;;;;;;;2.70;2.20;;;26.30;51.00;;;;;;5049071;28;20960;-67
2023/05/31 06:34:57;;;;;;;4.37;2.10;;;26.30;51.00;;;;;;5049883;28;20455;-67
2023/05/31 06:37:26;;;;;;;2.00;1.53;;;26.30;50.90;;;;;;5073677;28;20481;-69
2023/05/31 06:39:54;;;;;;;3.07;2.10;;;26.40;51.10;;;;;;5056755;28;20467;-68
2023/05/31 06:42:24;;;;;;;1.90;1.70;;;26.30;51.10;;;;;;5054021;28;20457;-68
2023/05/31 06:44:58;;;;;;;1.70;1.60;;;26.40;51.10;;;;;;5069841;28;20535;-70
2023/05/31 06:47:45;;;;;;;1.93;1.80;;;26.40;51.20;;;;;;5065531;28;20481;-68
2023/05/31 06:50:16;;;;;;;2.50;2.17;;;26.40;51.30;;;;;;5074274;28;20448;-68
2023/05/31 06:52:47;;;;;;;5.33;2.40;;;26.40;51.50;;;;;;5077190;28;20465;-67
2023/05/31 06:55:15;;;;;;;3.60;2.20;;;26.40;51.80;;;;;;5073645;28;20461;-66
2023/05/31 06:57:45;;;;;;;2.27;2.03;;;26.40;52.00;;;;;;5045336;28;20919;-67
2023/05/31 07:00:14;;;;;;;2.43;2.20;;;26.40;52.20;;;;;;5050429;28;20465;-67
2023/05/31 07:02:42;;;;;;;3.10;2.53;;;26.40;52.30;;;;;;5063840;28;20489;-67
2023/05/31 07:05:11;;;;;;;6.47;1.53;;;26.50;52.50;;;;;;5070199;28;20504;-68
2023/05/31 07:07:39;;;;;;;2.30;2.10;;;26.50;52.50;;;;;;5060352;28;20457;-67
2023/05/31 07:10:08;;;;;;;2.73;2.37;;;26.50;52.50;;;;;;5042470;28;20465;-67
2023/05/31 07:12:37;;;;;;;3.93;1.87;;;26.60;52.60;;;;;;5051164;28;20547;-67
2023/05/31 07:15:08;;;;;;;2.37;1.90;;;26.60;52.60;;;;;;5054334;28;20469;-67
2023/05/31 07:17:37;;;;;;;1.83;1.73;;;26.60;52.60;;;;;;5042656;28;20485;-68
2023/05/31 07:20:07;;;;;;;4.23;2.20;;;26.60;52.70;;;;;;5059601;28;20501;-67
2023/05/31 07:22:36;;;;;;;2.60;2.17;;;26.70;52.70;;;;;;5077007;28;20544;-68
2023/05/31 07:25:04;;;;;;;3.40;1.70;;;26.70;52.70;;;;;;5076843;28;20458;-68
2023/05/31 07:27:33;;;;;;;2.17;1.97;;;26.70;52.70;;;;;;5075089;28;20548;-68
2023/05/31 07:30:01;;;;;;;3.07;2.40;;;26.70;52.80;;;;;;5061784;28;20523;-70
2023/05/31 07:32:30;;;;;;;2.13;1.93;;;26.70;52.70;;;;;;5074084;28;20457;-69
2023/05/31 07:35:00;;;;;;;2.87;2.47;;;26.70;52.40;;;;;;5074185;28;20458;-69
2023/05/31 07:37:32;;;;;;;2.80;2.37;;;26.70;52.30;;;;;;5065958;28;20502;-67
2023/05/31 07:40:00;;;;;;;2.40;2.20;;;26.70;52.50;;;;;;5071810;28;20456;-67
2023/05/31 07:42:30;;;;;;;1.87;1.77;;;26.80;52.50;;;;;;5071411;28;20455;-67
2023/05/31 07:44:59;;;;;;;5.63;2.50;;;26.80;52.50;;;;;;5076477;28;20514;-67
2023/05/31 07:47:27;;;;;;;2.20;2.00;;;26.80;52.50;;;;;;5078450;28;20453;-67
2023/05/31 07:49:57;;;;;;;2.23;1.80;;;26.80;52.70;;;;;;5080604;28;20992;-68
2023/05/31 07:52:25;;;;;;;1.93;1.83;;;26.80;52.80;;;;;;5076779;28;20511;-68
2023/05/31 07:54:53;;;;;;;4.03;2.40;;;26.80;53.00;;;;;;5076877;28;20590;-66
2023/05/31 07:57:22;;;;;;;2.90;2.70;;;26.90;53.00;;;;;;5074071;28;20478;-67
2023/05/31 07:59:51;;;;;;;2.40;2.20;;;26.90;53.00;;;;;;5047840;28;20463;-67
2023/05/31 08:02:19;;;;;;;3.53;2.57;;;26.90;53.10;;;;;;5080468;28;20460;-67
2023/05/31 08:04:48;;;;;;;2.03;1.93;;;26.90;53.20;;;;;;5072520;28;20497;-67
2023/05/31 08:07:17;;;;;;;2.50;2.30;;;26.90;53.20;;;;;;5071678;28;20453;-67
2023/05/31 08:09:47;;;;;;;4.10;1.80;;;26.90;53.20;;;;;;5074046;28;20455;-69
2023/05/31 08:12:15;;;;;;;2.43;2.10;;;26.90;53.20;;;;;;5078889;28;20459;-66
2023/05/31 08:14:45;;;;;;;2.10;2.00;;;26.90;53.00;;;;;;5078098;28;20453;-66
2023/05/31 08:17:14;;;;;;;1.97;1.87;;;26.90;53.20;;;;;;5072535;28;20481;-65
2023/05/31 08:19:42;;;;;;;4.30;2.50;;;27.00;53.20;;;;;;5072068;28;20538;-67
2023/05/31 08:22:10;;;;;;;2.60;2.40;;;27.00;53.20;;;;;;5075603;28;20477;-67
2023/05/31 08:24:40;;;;;;;3.50;2.00;;;27.00;53.40;;;;;;5062417;28;20473;-67
2023/05/31 08:27:08;;;;;;;2.53;2.33;;;27.00;53.20;;;;;;5074122;28;20542;-66
2023/05/31 08:29:36;;;;;;;2.70;2.50;;;27.00;53.40;;;;;;5069413;28;20473;-68
2023/05/31 08:32:05;;;;;;;2.50;2.20;;;27.10;53.40;;;;;;5071571;28;20449;-67
2023/05/31 08:34:34;;;;;;;2.40;2.20;;;27.10;53.50;;;;;;5067607;28;20452;-67
2023/05/31 08:37:03;;;;;;;4.73;2.50;;;27.10;53.50;;;;;;5069715;28;20500;-67
2023/05/31 08:39:31;;;;;;;2.60;2.40;;;27.10;53.50;;;;;;5067922;28;20461;-68
2023/05/31 08:42:03;;;;;;;2.33;2.10;;;27.10;53.70;;;;;;5068076;28;20465;-67
2023/05/31 08:44:31;;;;;;;3.30;2.47;;;27.10;53.60;;;;;;5076548;28;21031;-68
2023/05/31 08:47:09;;;;;;;2.00;1.90;;;27.10;53.70;;;;;;5068536;28;20462;-68
2023/05/31 08:49:37;;;;;;;2.50;2.07;;;27.20;53.70;;;;;;5066105;28;20449;-66
2023/05/31 08:52:07;;;;;;;2.17;1.97;;;27.20;53.80;;;;;;5071779;28;20462;-66
2023/05/31 08:54:38;;;;;;;2.27;2.07;;;27.20;53.80;;;;;;5066641;28;20452;-66
2023/05/31 08:57:09;;;;;;;5.17;1.87;;;27.20;53.80;;;;;;5050919;28;20473;-66
2023/05/31 08:59:39;;;;;;;3.87;1.83;;;27.30;53.80;;;;;;5068340;28;20463;-66
2023/05/31 09:02:11;;;;;;;1.80;1.70;;;27.30;53.80;;;;;;5069904;28;20827;-66
2023/05/31 09:04:41;;;;;;;1.90;1.80;;;27.30;53.90;;;;;;5068364;28;20471;-68
2023/05/31 09:07:09;;;;;;;2.30;2.10;;;27.30;54.00;;;;;;5068854;28;21019;-68
2023/05/31 09:09:38;;;;;;;2.70;2.50;;;27.30;54.00;;;;;;5070029;28;20529;-66
2023/05/31 09:12:08;;;;;;;4.27;1.80;;;27.30;54.10;;;;;;5053469;28;20463;-66
2023/05/31 09:14:37;;;;;;;1.93;1.50;;;27.30;54.10;;;;;;5067657;28;20464;-66
2023/05/31 09:17:05;;;;;;;1.70;1.60;;;27.30;54.20;;;;;;5069488;28;20460;-66
2023/05/31 09:19:34;;;;;;;3.87;3.27;;;27.30;54.20;;;;;;5069565;28;20477;-68
2023/05/31 09:22:05;;;;;;;3.40;2.13;;;27.30;53.80;;;;;;5058994;28;20494;-67
2023/05/31 09:24:33;;;;;;;2.30;2.10;;;27.30;53.80;;;;;;5062336;28;20463;-67
2023/05/31 09:27:01;;;;;;;2.20;2.00;;;27.30;53.60;;;;;;5069936;28;20483;-67
2023/05/31 09:29:31;;;;;;;2.00;1.90;;;27.30;53.50;;;;;;5058399;28;20525;-68
2023/05/31 09:32:10;;;;;;;3.73;2.50;;;27.30;53.50;;;;;;5065514;28;20464;-67
2023/05/31 09:34:38;;;;;;;2.33;2.13;;;27.30;53.50;;;;;;5071684;28;20454;-67
2023/05/31 09:37:07;;;;;;;2.70;2.03;;;27.30;53.40;;;;;;5075387;28;20477;-67
2023/05/31 09:39:35;;;;;;;2.63;2.20;;;27.30;53.40;;;;;;5067063;28;20523;-68
2023/05/31 09:42:13;;;;;;;2.93;2.40;;;27.30;53.40;;;;;;5069749;28;20457;-68
2023/05/31 09:44:49;;;;;;;4.30;3.13;;;27.30;53.40;;;;;;5069189;28;20450;-69
2023/05/31 09:47:23;;;;;;;3.90;3.00;;;27.30;53.50;;;;;;5068148;28;20488;-69
2023/05/31 09:49:54;;;;;;;3.27;2.97;;;27.30;53.40;;;;;;5055752;28;20465;-69
2023/05/31 09:52:28;;;;;;;3.00;2.10;;;27.30;53.50;;;;;;5065338;28;20455;-69
2023/05/31 09:54:57;;;;;;;2.77;1.73;;;27.30;53.50;;;;;;5070054;28;20454;-70
2023/05/31 09:57:33;;;;;;;3.47;2.20;;;27.30;53.50;;;;;;5050746;28;20979;-69
2023/05/31 10:00:11;;;;;;;2.60;2.40;;;27.30;53.60;;;;;;5074997;28;20973;-70
2023/05/31 10:02:42;;;;;;;2.50;1.90;;;27.40;53.50;;;;;;5065180;28;20546;-69
2023/05/31 10:05:12;;;;;;;4.30;2.50;;;27.40;53.50;;;;;;5048510;28;20513;-68
2023/05/31 10:07:41;;;;;;;2.97;2.57;;;27.40;53.60;;;;;;5062327;28;20521;-69
2023/05/31 10:10:10;;;;;;;2.40;2.20;;;27.40;53.60;;;;;;5070988;28;20458;-68
2023/05/31 10:12:46;;;;;;;3.83;2.77;;;27.40;53.70;;;;;;5071541;28;20933;-69
2023/05/31 10:15:19;;;;;;;4.47;2.63;;;27.40;53.70;;;;;;5063461;28;20458;-69
2023/05/31 10:17:56;;;;;;;3.83;2.20;;;27.40;53.40;;;;;;5063492;28;20478;-69
2023/05/31 10:20:30;;;;;;;2.47;2.33;;;27.40;53.10;;;;;;5075321;28;20614;-70
2023/05/31 10:23:02;;;;;;;3.10;2.40;;;27.40;52.80;;;;;;5071768;28;20464;-69
2023/05/31 10:25:36;;;;;;;3.97;2.50;;;27.40;52.70;;;;;;5077644;28;20453;-69
2023/05/31 10:28:10;;;;;;;2.60;2.40;;;27.40;52.70;;;;;;5063313;28;20841;-70
2023/05/31 10:30:41;;;;;;;4.10;2.50;;;27.40;52.70;;;;;;5045462;28;20791;-69
2023/05/31 10:33:15;;;;;;;2.83;2.60;;;27.40;52.80;;;;;;5067663;28;21003;-70
2023/05/31 10:35:45;;;;;;;3.13;2.93;;;27.40;52.60;;;;;;5065448;28;20513;-68
2023/05/31 10:38:18;;;;;;;3.47;2.97;;;27.40;52.60;;;;;;5066747;28;20470;-68
2023/05/31 10:40:53;;;;;;;3.17;2.87;;;27.30;51.80;;;;;;5069548;28;20812;-68
2023/05/31 10:43:31;;;;;;;2.70;2.50;;;27.20;51.70;;;;;;5069243;28;20448;-69
2023/05/31 10:46:05;;;;;;;3.07;2.60;;;27.20;51.70;;;;;;5069202;28;20460;-68
2023/05/31 10:48:43;;;;;;;3.40;2.73;;;27.20;51.70;;;;;;5070239;28;20494;-68
2023/05/31 10:51:12;;;;;;;2.90;2.70;;;27.20;51.90;;;;;;5069619;28;20459;-68
2023/05/31 10:53:41;;;;;;;3.17;2.87;;;27.20;51.70;;;;;;5068693;28;20467;-69
2023/05/31 10:56:13;;;;;;;2.80;2.60;;;27.20;51.80;;;;;;5069236;28;20498;-68
2023/05/31 10:58:43;;;;;;;5.10;3.07;;;27.20;51.90;;;;;;5068808;28;20827;-68
2023/05/31 11:01:14;;;;;;;3.70;2.60;;;27.20;51.90;;;;;;5066107;28;20867;-68
2023/05/31 11:03:47;;;;;;;4.97;3.67;;;27.20;52.00;;;;;;5071999;28;20455;-69
2023/05/31 11:06:17;;;;;;;6.23;4.20;;;27.20;52.00;;;;;;5069663;28;20464;-68
2023/05/31 11:08:59;;;;;;;4.30;3.47;;;27.20;52.00;;;;;;5078055;28;20524;-69
2023/05/31 11:11:46;;;;;;;7.73;3.73;;;27.20;52.00;;;;;;5067839;28;20462;-68
2023/05/31 11:14:29;;;;;;;6.40;4.30;;;27.20;51.90;;;;;;5052901;28;20823;-68
2023/05/31 11:17:20;;;;;;;5.20;4.00;;;27.20;51.90;;;;;;5073038;28;20972;-68
2023/05/31 11:19:53;;;;;;;5.37;3.57;;;27.20;52.00;;;;;;5049318;28;20521;-70
2023/05/31 11:22:28;;;;;;;6.50;4.27;;;27.20;52.00;;;;;;5077251;28;20524;-68
2023/05/31 11:24:59;;;;;;;4.23;3.80;;;27.20;52.10;;;;;;5062631;28;20450;-68
2023/05/31 11:27:37;;;;;;;6.00;3.70;;;27.20;52.10;;;;;;5072559;28;20837;-69
2023/05/31 11:30:08;;;;;;;8.30;4.13;;;27.10;52.10;;;;;;5073178;28;20514;-69
2023/05/31 11:32:59;;;;;;;7.70;4.20;;;27.10;52.20;;;;;;5062920;28;20450;-70
2023/05/31 11:35:32;;;;;;;8.50;4.53;;;27.10;52.10;;;;;;5056789;28;20443;-70
2023/05/31 11:38:01;;;;;;;7.20;4.67;;;27.00;52.20;;;;;;5066060;28;20453;-69
2023/05/31 11:40:31;;;;;;;7.10;4.50;;;27.00;52.00;;;;;;5060289;28;20479;-69
2023/05/31 11:43:08;;;;;;;8.17;4.10;;;27.00;52.00;;;;;;5065226;28;20461;-69
2023/05/31 11:45:45;;;;;;;5.03;3.30;;;27.00;51.90;;;;;;5066717;28;20695;-68
2023/05/31 11:48:31;;;;;;;6.13;4.20;;;27.00;51.80;;;;;;5070607;28;20465;-69
2023/05/31 11:51:04;;;;;;;5.33;3.97;;;27.10;52.30;;;;;;5047150;28;20888;-68
2023/05/31 11:53:32;;;;;;;4.53;3.60;;;27.20;52.30;;;;;;5068489;28;20463;-70
2023/05/31 11:56:00;;;;;;;5.17;3.57;;;27.30;52.40;;;;;;5062874;28;20491;-69
2023/05/31 11:58:29;;;;;;;4.40;3.40;;;27.40;52.50;;;;;;5068925;28;20453;-68
2023/05/31 12:01:01;;;;;;;5.20;3.60;;;27.50;52.50;;;;;;5074905;28;20487;-67
2023/05/31 12:03:31;;;;;;;5.27;3.90;;;27.60;52.40;;;;;;5074909;28;20467;-67
2023/05/31 12:06:00;;;;;;;4.93;3.93;;;27.80;52.30;;;;;;5071243;28;20546;-68
2023/05/31 12:08:29;;;;;;;5.53;4.10;;;27.90;52.10;;;;;;5067827;28;20461;-68
2023/05/31 12:11:05;;;;;;;4.00;3.43;;;28.10;52.00;;;;;;5071597;28;20543;-69
2023/05/31 12:13:35;;;;;;;4.70;3.37;;;28.30;51.70;;;;;;5063145;28;20519;-69
2023/05/31 12:16:05;;;;;;;4.67;3.80;;;28.40;51.70;;;;;;5069357;28;20462;-67
2023/05/31 12:18:36;;;;;;;3.50;3.13;;;28.60;51.50;;;;;;5070881;28;20456;-69
2023/05/31 12:21:09;;;;;;;4.77;3.30;;;28.80;51.30;;;;;;5067123;28;20501;-68
2023/05/31 12:23:52;;;;;;;4.03;3.60;;;29.00;51.10;;;;;;5069038;28;20824;-68
2023/05/31 12:26:21;;;;;;;3.40;3.10;;;29.10;50.80;;;;;;5064558;28;20573;-68
2023/05/31 12:28:50;;;;;;;5.63;3.20;;;29.20;50.80;;;;;;5066381;28;21038;-69
2023/05/31 12:31:23;;;;;;;3.30;3.03;;;29.30;50.90;;;;;;5052045;28;20483;-67
2023/05/31 12:34:08;;;;;;;4.27;3.63;;;29.30;50.90;;;;;;5069672;28;20468;-67
2023/05/31 12:36:41;;;;;;;5.70;3.13;;;29.30;51.00;;;;;;5067842;28;20451;-67
2023/05/31 12:39:11;;;;;;;3.60;2.97;;;29.20;51.00;;;;;;5061033;28;20478;-68
2023/05/31 12:41:42;;;;;;;3.70;3.27;;;29.30;51.10;;;;;;5068187;28;20465;-66
2023/05/31 12:44:10;;;;;;;4.40;3.57;;;29.20;51.20;;;;;;5064751;28;20454;-68
2023/05/31 12:46:39;;;;;;;7.93;3.70;;;29.20;51.30;;;;;;5068997;28;20550;-68
2023/05/31 12:49:22;;;;;;;4.90;3.50;;;29.20;51.30;;;;;;5063641;28;20468;-69
2023/05/31 12:51:58;;;;;;;7.53;3.77;;;29.20;51.40;;;;;;5048889;28;20457;-68
2023/05/31 12:54:27;;;;;;;4.80;3.10;;;29.20;51.50;;;;;;5075540;28;20451;-67
2023/05/31 12:56:58;;;;;;;3.40;3.10;;;29.20;51.60;;;;;;5073172;28;20465;-67
2023/05/31 12:59:28;;;;;;;4.93;3.20;;;29.20;51.80;;;;;;5066095;28;20493;-67
2023/05/31 13:01:56;;;;;;;3.43;3.10;;;29.20;51.90;;;;;;5070580;28;20457;-67
2023/05/31 13:04:26;;;;;;;3.67;3.37;;;29.20;51.90;;;;;;5070041;28;20457;-67
2023/05/31 13:06:57;;;;;;;3.47;2.93;;;29.20;52.00;;;;;;5064556;28;20989;-67